createdAt,value
2018-07-17T06:01:57.313Z,31.9
2018-07-17T06:02:47.027Z,32
2018-07-17T06:03:37.128Z,32.1
2018-07-17T06:04:27.228Z,32.3
2018-07-17T06:05:17.245Z,32.4
2018-07-17T06:06:07.573Z,32.4
2018-07-17T06:06:57.372Z,32.6
2018-07-17T06:07:47.397Z,32.6
2018-07-17T06:08:37.780Z,32.8
2018-07-17T06:09:27.654Z,32.9
2018-07-17T06:10:18.616Z,33
2018-07-17T06:11:07.437Z,33.1
2018-07-17T06:11:57.753Z,33.3
2018-07-17T06:12:48.116Z,33.4
2018-07-17T06:13:37.895Z,33.5
2018-07-17T06:14:28.246Z,33.6
2018-07-17T06:15:18.020Z,33.8
2018-07-17T06:16:08.375Z,33.9
2018-07-17T06:16:58.499Z,34.1
2018-07-17T06:17:48.478Z,34.1
2018-07-17T06:18:38.564Z,34.1
2018-07-17T06:19:27.834Z,34.2
2018-07-17T06:20:18.814Z,34.2
2018-07-17T06:21:08.288Z,34.3
2018-07-17T06:21:58.766Z,34.3
2018-07-17T06:22:48.325Z,34.3
2018-07-17T06:23:38.054Z,34.4
2018-07-17T06:24:28.197Z,34.5
2018-07-17T06:25:18.835Z,34.6
2018-07-17T06:26:08.847Z,34.7
2018-07-17T06:26:58.914Z,34.8
2018-07-17T06:27:48.671Z,34.9
2018-07-17T06:28:39.295Z,34.9
2018-07-17T06:29:29.138Z,34.9
2018-07-17T06:30:18.919Z,34.9
2018-07-17T06:31:09.304Z,34.8
2018-07-17T06:31:59.271Z,34.8
2018-07-17T06:32:49.047Z,34.8
2018-07-17T06:33:39.743Z,34.8
2018-07-17T06:34:29.013Z,34.8
2018-07-17T06:35:19.311Z,34.9
2018-07-17T06:36:09.605Z,35
2018-07-17T06:36:59.419Z,35.1
2018-07-17T06:37:49.562Z,35.3
2018-07-17T06:38:39.881Z,35.5
2018-07-17T06:39:29.382Z,35.6
2018-07-17T06:40:19.916Z,35.5
2018-07-17T06:41:09.983Z,35.4
2018-07-17T06:42:00.082Z,35.4
2018-07-17T06:42:50.379Z,35.4
2018-07-17T06:43:39.949Z,35.4
2018-07-17T06:44:29.897Z,35.4
2018-07-17T06:45:20.631Z,35.4
2018-07-17T06:46:10.689Z,35.4
2018-07-17T06:47:00.454Z,35.4
2018-07-17T06:47:50.775Z,35.3
2018-07-17T06:48:40.345Z,35.3
2018-07-17T06:49:30.592Z,35.3
2018-07-17T06:50:22.177Z,35.2
2018-07-17T06:51:10.525Z,35.2
2018-07-17T06:52:00.577Z,35.2
2018-07-17T06:52:51.215Z,35.1
2018-07-17T06:53:40.492Z,35.1
2018-07-17T06:54:31.014Z,35.1
2018-07-17T06:55:21.370Z,35.1
2018-07-17T06:56:11.417Z,35
2018-07-17T06:57:01.508Z,35
2018-07-17T06:57:51.027Z,35
2018-07-17T06:58:41.374Z,34.9
2018-07-17T06:59:31.126Z,34.9
2018-07-17T07:00:21.763Z,34.9
2018-07-17T07:01:11.544Z,34.9
2018-07-17T07:02:01.919Z,34.9
2018-07-17T07:02:51.391Z,34.9
2018-07-17T07:03:41.477Z,35
2018-07-17T07:04:31.557Z,35.1
2018-07-17T07:05:22.044Z,35.1
2018-07-17T07:06:11.673Z,35.1
2018-07-17T07:07:01.735Z,35.2
2018-07-17T07:07:52.072Z,35.3
2018-07-17T07:08:41.539Z,35.3
2018-07-17T07:09:31.956Z,35.3
2018-07-17T07:10:22.289Z,35.4
2018-07-17T07:11:13.160Z,35.4
2018-07-17T07:12:02.373Z,35.4
2018-07-17T07:12:52.212Z,35.4
2018-07-17T07:13:42.227Z,35.4
2018-07-17T07:14:31.785Z,35.3
2018-07-17T07:15:22.379Z,35.3
2018-07-17T07:16:13.025Z,35.3
2018-07-17T07:17:02.283Z,35.3
2018-07-17T07:17:52.864Z,35.2
2018-07-17T07:18:42.635Z,35.1
2018-07-17T07:19:33.225Z,35.1
2018-07-17T07:20:23.126Z,35.1
2018-07-17T07:21:13.360Z,35.1
2018-07-17T07:22:03.490Z,35.1
2018-07-17T07:22:52.655Z,35.1
2018-07-17T07:23:43.029Z,35.1
2018-07-17T07:24:33.651Z,35.1
2018-07-17T07:25:22.929Z,35.1
2018-07-17T07:26:13.267Z,35.1
2018-07-17T07:27:03.538Z,35.1
2018-07-17T07:27:53.367Z,35.1
2018-07-17T07:28:44.008Z,35.1
2018-07-17T07:29:33.743Z,35.1
2018-07-17T07:30:23.201Z,35.1
2018-07-17T07:31:13.600Z,35
2018-07-17T07:32:03.962Z,35
2018-07-17T07:32:53.434Z,34.9
2018-07-17T07:33:43.514Z,34.9
2018-07-17T07:34:33.954Z,34.8
2018-07-17T07:35:23.925Z,34.8
2018-07-17T07:36:14.585Z,34.7
2018-07-17T07:37:04.370Z,34.7
2018-07-17T07:37:54.657Z,34.6
2018-07-17T07:38:44.176Z,34.6
2018-07-17T07:39:34.247Z,34.5
2018-07-17T07:40:24.550Z,34.4
2018-07-17T07:41:14.617Z,34.4
2018-07-17T07:42:04.414Z,34.3
2018-07-17T07:42:56.097Z,34.3
2018-07-17T07:43:44.794Z,34.3
2018-07-17T07:44:34.850Z,34.2
2018-07-17T07:45:24.984Z,34
2018-07-17T07:46:14.711Z,33.7
2018-07-17T07:47:04.829Z,33.5
2018-07-17T07:47:55.486Z,33.4
2018-07-17T07:48:44.582Z,33.3
2018-07-17T07:49:35.558Z,33.3
2018-07-17T07:50:25.063Z,33.3
2018-07-17T07:51:15.086Z,33.2
2018-07-17T07:52:05.728Z,33.2
2018-07-17T07:52:55.220Z,33.1
2018-07-17T07:53:45.829Z,33.1
2018-07-17T07:54:35.925Z,33
2018-07-17T07:55:25.490Z,32.9
2018-07-17T07:56:16.016Z,32.9
2018-07-17T07:57:05.574Z,32.8
2018-07-17T07:57:56.160Z,32.8
2018-07-17T07:58:45.403Z,32.7
2018-07-17T07:59:36.015Z,32.6
2018-07-17T08:00:25.821Z,32.6
2018-07-17T08:01:15.910Z,32.5
2018-07-17T08:02:06.486Z,32.4
2018-07-17T08:02:56.283Z,32.4
2018-07-17T08:03:47.729Z,32.4
2018-07-17T08:04:35.855Z,32.3
2018-07-17T08:05:26.165Z,32.3
2018-07-17T08:06:16.737Z,32
2018-07-17T08:07:06.319Z,31.5
2018-07-17T08:07:56.637Z,31
2018-07-17T08:08:47.015Z,30.5
2018-07-17T08:09:36.244Z,30.1
2018-07-17T08:10:26.000Z,29.8
2018-07-17T08:11:16.919Z,29.7
2018-07-17T08:12:07.714Z,29.6
2018-07-17T08:12:57.370Z,29.5
2018-07-17T08:13:47.141Z,29.4
2018-07-17T08:14:36.355Z,29.4
2018-07-17T08:15:27.498Z,29.3
2018-07-17T08:16:17.595Z,29.3
2018-07-17T08:17:07.667Z,29.2
2018-07-17T08:17:57.704Z,29.1
2018-07-17T08:18:47.463Z,29.1
2018-07-17T08:19:37.320Z,29.1
2018-07-17T08:20:27.157Z,28.9
2018-07-17T08:21:16.900Z,28.9
2018-07-17T08:22:07.520Z,28.9
2018-07-17T08:22:57.336Z,28.8
2018-07-17T08:23:47.112Z,28.8
2018-07-17T08:24:37.451Z,28.8
2018-07-17T08:25:28.252Z,28.7
2018-07-17T08:26:18.329Z,28.7
2018-07-17T08:27:08.179Z,28.6
2018-07-17T08:27:57.882Z,28.6
2018-07-17T08:28:48.248Z,28.5
2018-07-17T08:29:38.774Z,28.4
2018-07-17T08:30:28.085Z,28.5
2018-07-17T08:31:18.783Z,28.4
2018-07-17T08:32:08.512Z,28.4
2018-07-17T08:32:58.879Z,28.3
2018-07-17T08:33:48.662Z,28.3
2018-07-17T08:34:38.443Z,28.3
2018-07-17T08:35:28.781Z,28.3
2018-07-17T08:36:18.043Z,28.3
2018-07-17T08:37:08.625Z,28.2
2018-07-17T08:37:58.744Z,28.1
2018-07-17T08:38:49.024Z,28.2
2018-07-17T08:39:39.101Z,28.1
2018-07-17T08:40:29.197Z,28.1
2018-07-17T08:41:19.314Z,28.1
2018-07-17T08:42:09.286Z,28
2018-07-17T08:42:59.388Z,28
2018-07-17T08:43:49.669Z,27.9
2018-07-17T08:44:39.307Z,27.9
2018-07-17T08:45:29.030Z,27.9
2018-07-17T08:46:18.706Z,27.9
2018-07-17T08:47:09.701Z,27.9
2018-07-17T08:47:59.181Z,27.9
2018-07-17T08:51:19.995Z,27.8
2018-07-17T08:52:09.780Z,27.8
2018-07-17T08:53:00.499Z,27.8
2018-07-17T08:53:50.472Z,27.7
2018-07-17T08:54:41.198Z,27.8
2018-07-17T08:55:30.669Z,27.7
2018-07-17T08:56:19.862Z,27.7
2018-07-17T08:57:10.717Z,27.7
2018-07-17T08:58:00.536Z,27.6
2018-07-17T08:58:50.279Z,27.7
2018-07-17T08:59:40.666Z,27.6
2018-07-17T09:00:31.348Z,27.6
2018-07-17T09:01:20.502Z,27.6
2018-07-17T09:02:10.546Z,27.6
2018-07-17T09:03:00.352Z,27.6
2018-07-17T09:03:50.662Z,27.6
2018-07-17T09:04:41.062Z,27.6
2018-07-17T09:05:31.351Z,27.6
2018-07-17T09:06:21.172Z,27.5
2018-07-17T09:07:11.233Z,27.5
2018-07-17T09:08:01.551Z,27.5
2018-07-17T09:08:51.653Z,27.4
2018-07-17T09:09:41.704Z,27.4
2018-07-17T09:10:31.484Z,27.4
2018-07-17T09:11:21.887Z,27.4
2018-07-17T09:12:11.085Z,27.4
2018-07-17T09:13:02.217Z,27.4
2018-07-17T09:13:51.758Z,27.4
2018-07-17T09:14:41.793Z,27.4
2018-07-17T09:15:31.683Z,27.4
2018-07-17T09:16:21.946Z,29.6
2018-07-17T09:17:11.126Z,30.8
2018-07-17T09:18:02.152Z,32.5
2018-07-17T09:18:52.435Z,34.8
2018-07-17T09:19:42.449Z,35.3
2018-07-17T09:20:31.665Z,34.9
2018-07-17T09:21:22.394Z,34.3
2018-07-17T09:22:12.658Z,34
2018-07-17T09:23:02.192Z,34.1
2018-07-17T09:23:52.251Z,34.4
2018-07-17T09:24:41.754Z,34.8
2018-07-17T09:25:32.389Z,35.1
2018-07-17T09:26:22.411Z,35.1
2018-07-17T09:27:12.744Z,35.2
2018-07-17T09:28:02.839Z,35.2
2018-07-17T09:28:52.731Z,35.3
2018-07-17T09:29:42.932Z,35.5
2018-07-17T09:30:33.004Z,35.6
2018-07-17T09:31:23.094Z,35.8
2018-07-17T09:32:13.420Z,35.8
2018-07-17T09:33:03.611Z,35.9
2018-07-17T09:33:53.265Z,36.1
2018-07-17T09:34:43.350Z,36.3
2018-07-17T09:35:32.918Z,36.4
2018-07-17T09:36:22.905Z,36.5
2018-07-17T09:37:13.016Z,36.6
2018-07-17T09:38:03.383Z,36.8
2018-07-17T09:38:53.940Z,37
2018-07-17T09:39:43.496Z,37.3
2018-07-17T09:40:33.579Z,37.4
2018-07-17T09:41:23.641Z,37.7
2018-07-17T09:42:13.733Z,37.8
2018-07-17T09:43:04.248Z,38
2018-07-17T09:43:54.306Z,38.3
2018-07-17T09:44:44.390Z,38.5
2018-07-17T09:45:34.471Z,38.8
2018-07-17T09:46:24.528Z,39.1
2018-07-17T09:47:14.659Z,39.3
2018-07-17T09:48:03.565Z,39.6
2018-07-17T09:48:54.182Z,39.8
2018-07-17T09:49:43.936Z,40.1
2018-07-17T09:50:34.564Z,40.4
2018-07-17T09:51:24.399Z,40.6
2018-07-17T09:52:14.441Z,40.8
2018-07-17T09:53:04.481Z,41
2018-07-17T09:53:54.828Z,41.2
2018-07-17T09:54:44.636Z,41.5
2018-07-17T09:55:34.676Z,41.7
2018-07-17T09:56:24.496Z,41.9
2018-07-17T09:57:15.383Z,42.1
2018-07-17T09:58:04.335Z,42.3
2018-07-17T09:58:55.233Z,42.6
2018-07-17T09:59:44.717Z,42.8
2018-07-17T10:00:35.363Z,43
2018-07-17T10:01:25.455Z,43.2
2018-07-17T10:02:15.780Z,43.3
2018-07-17T10:03:05.238Z,43.4
2018-07-17T10:03:55.896Z,43.4
2018-07-17T10:04:46.220Z,43.6
2018-07-17T10:05:36.004Z,43.5
2018-07-17T10:06:26.790Z,43.3
2018-07-17T10:07:15.620Z,43.2
2018-07-17T10:08:06.197Z,43.2
2018-07-17T10:08:55.976Z,43.2
2018-07-17T10:09:46.332Z,43.2
2018-07-17T10:10:36.362Z,43.3
2018-07-17T10:11:26.201Z,43.3
2018-07-17T10:12:16.247Z,43.2
2018-07-17T10:13:05.764Z,43.1
2018-07-17T10:13:56.465Z,43.1
2018-07-17T10:14:46.507Z,42.9
2018-07-17T10:15:36.324Z,42.9
2018-07-17T10:16:26.284Z,42.8
2018-07-17T10:17:16.992Z,42.7
2018-07-17T10:18:07.006Z,42.7
2018-07-17T10:18:56.777Z,42.6
2018-07-17T10:19:46.558Z,42.6
2018-07-17T10:20:36.323Z,42.5
2018-07-17T10:21:27.248Z,42.5
2018-07-17T10:22:17.036Z,42.5
2018-07-17T10:23:06.807Z,42.5
2018-07-17T10:23:57.396Z,42.5
2018-07-17T10:24:47.240Z,42.5
2018-07-17T10:25:37.026Z,42.5
2018-07-17T10:26:28.628Z,42.6
2018-07-17T10:27:17.658Z,42.6
2018-07-17T10:28:07.190Z,42.8
2018-07-17T10:28:57.252Z,42.9
2018-07-17T10:29:47.374Z,43.1
2018-07-17T10:30:37.631Z,43.3
2018-07-17T10:31:28.064Z,43.4
2018-07-17T10:32:18.775Z,43.6
2018-07-17T10:33:07.841Z,43.6
2018-07-17T10:33:57.910Z,43.8
2018-07-17T10:34:47.925Z,43.8
2018-07-17T10:35:38.285Z,43.9
2018-07-17T10:36:28.394Z,43.9
2018-07-17T10:37:18.416Z,43.9
2018-07-17T10:38:08.238Z,43.9
2018-07-17T10:38:58.615Z,43.9
2018-07-17T10:39:48.342Z,44
2018-07-17T10:40:38.738Z,44.1
2018-07-17T10:41:28.500Z,44.1
2018-07-17T10:42:18.850Z,44.1
2018-07-17T10:43:08.450Z,44.1
2018-07-17T10:43:58.983Z,44.1
2018-07-17T10:44:48.727Z,44.3
2018-07-17T10:45:38.253Z,44.4
2018-07-17T10:46:29.180Z,44.6
2018-07-17T10:47:19.220Z,45.1
2018-07-17T10:48:09.301Z,45.4
2018-07-17T10:48:58.773Z,45.6
2018-07-17T10:49:48.870Z,45.7
2018-07-17T10:50:39.495Z,45.8
2018-07-17T10:51:29.588Z,46
2018-07-17T10:52:19.616Z,46.1
2018-07-17T10:53:09.400Z,46.1
2018-07-17T10:53:59.204Z,46.1
2018-07-17T10:54:48.950Z,46.1
2018-07-17T10:55:39.595Z,46.2
2018-07-17T10:56:29.935Z,46.4
2018-07-17T10:57:19.704Z,46.4
2018-07-17T10:58:10.026Z,46.4
2018-07-17T10:59:00.135Z,46.4
2018-07-17T10:59:49.877Z,46.5
2018-07-17T11:00:39.382Z,46.8
2018-07-17T11:01:30.059Z,46.9
2018-07-17T11:02:20.338Z,47.1
2018-07-17T11:03:10.461Z,47.1
2018-07-17T11:04:00.486Z,47.1
2018-07-17T11:04:50.562Z,47.2
2018-07-17T11:05:40.684Z,47.4
2018-07-17T11:06:30.645Z,47.4
2018-07-17T11:07:20.766Z,47.5
2018-07-17T11:08:10.267Z,47.7
2018-07-17T11:09:00.422Z,47.8
2018-07-17T11:09:50.402Z,48.1
2018-07-17T11:10:41.013Z,48.3
2018-07-17T11:11:30.517Z,48.5
2018-07-17T11:12:20.868Z,48.7
2018-07-17T11:13:10.911Z,48.8
2018-07-17T11:14:00.991Z,49
2018-07-17T11:14:51.420Z,49.1
2018-07-17T11:15:41.119Z,49.2
2018-07-17T11:16:30.911Z,49.3
2018-07-17T11:17:21.532Z,49.3
2018-07-17T11:18:11.037Z,49.4
2018-07-17T11:19:01.698Z,49.5
2018-07-17T11:19:51.755Z,49.4
2018-07-17T11:20:41.778Z,49.3
2018-07-17T11:21:31.859Z,49.2
2018-07-17T11:22:21.130Z,49.2
2018-07-17T11:23:11.782Z,49.3
2018-07-17T11:24:01.234Z,49.2
2018-07-17T11:24:51.884Z,49.2
2018-07-17T11:25:41.168Z,49.1
2018-07-17T11:26:32.249Z,49.1
2018-07-17T11:27:21.001Z,49.1
2018-07-17T11:28:11.349Z,49.2
2018-07-17T11:29:02.456Z,49.2
2018-07-17T11:29:52.077Z,49.3
2018-07-17T11:30:42.094Z,49.3
2018-07-17T11:31:31.595Z,49.4
2018-07-17T11:32:21.952Z,49.4
2018-07-17T11:33:12.052Z,49.5
2018-07-17T11:34:01.834Z,49.4
2018-07-17T11:34:51.665Z,49.4
2018-07-17T11:35:42.473Z,49.6
2018-07-17T11:36:33.036Z,49.8
2018-07-17T11:37:22.794Z,49.9
2018-07-17T11:38:12.415Z,50.1
2018-07-17T11:39:02.667Z,50.1
2018-07-17T11:39:52.723Z,50.1
2018-07-17T11:40:42.817Z,50.2
2018-07-17T11:41:32.561Z,50.3
2018-07-17T11:42:23.205Z,50.3
2018-07-17T11:43:13.001Z,50.2
2018-07-17T11:44:03.659Z,50.1
2018-07-17T11:44:53.642Z,50.1
2018-07-17T11:45:43.740Z,50.1
2018-07-17T11:46:33.523Z,50.1
2018-07-17T11:47:23.311Z,50.1
2018-07-17T11:48:13.899Z,50.2
2018-07-17T11:49:03.996Z,50.1
2018-07-17T11:49:53.813Z,50.1
2018-07-17T11:50:44.163Z,50
2018-07-17T11:51:34.174Z,49.9
2018-07-17T11:52:23.969Z,49.9
2018-07-17T11:53:14.820Z,49.9
2018-07-17T11:54:04.195Z,49.9
2018-07-17T11:54:54.199Z,49.9
2018-07-17T11:55:43.478Z,49.8
2018-07-17T11:56:34.042Z,49.9
2018-07-17T11:57:23.804Z,49.9
2018-07-17T11:58:14.165Z,49.9
2018-07-17T11:59:06.539Z,49.9
2018-07-17T11:59:54.300Z,50
2018-07-17T12:00:44.369Z,50.1
2018-07-17T12:01:35.005Z,50.1
2018-07-17T12:02:24.542Z,50
2018-07-17T12:03:15.128Z,50
2018-07-17T12:04:04.906Z,49.9
2018-07-17T12:04:54.958Z,49.9
2018-07-17T12:05:45.484Z,49.8
2018-07-17T12:06:35.338Z,49.8
2018-07-17T12:07:25.147Z,49.7
2018-07-17T12:08:15.232Z,49.6
2018-07-17T12:09:05.521Z,49.5
2018-07-17T12:09:55.092Z,49.4
2018-07-17T12:10:44.834Z,49.3
2018-07-17T12:11:35.457Z,49.2
2018-07-17T12:12:25.695Z,49.1
2018-07-17T12:13:15.837Z,49
2018-07-17T12:14:05.357Z,48.9
2018-07-17T12:14:55.986Z,48.8
2018-07-17T12:15:46.089Z,48.8
2018-07-17T12:16:35.279Z,48.8
2018-07-17T12:17:25.881Z,48.8
2018-07-17T12:18:15.687Z,48.7
2018-07-17T12:19:06.340Z,48.7
2018-07-17T12:19:56.523Z,48.6
2018-07-17T12:20:46.185Z,48.6
2018-07-17T12:21:35.674Z,48.6
2018-07-17T12:22:26.314Z,48.6
2018-07-17T12:23:15.808Z,48.5
2018-07-17T12:24:06.467Z,48.5
2018-07-17T12:24:56.762Z,48.5
2018-07-17T12:25:46.266Z,48.5
2018-07-17T12:26:36.405Z,48.4
2018-07-17T12:27:25.930Z,48.4
2018-07-17T12:28:16.299Z,48.4
2018-07-17T12:29:06.633Z,48.4
2018-07-17T12:29:56.434Z,48.3
2018-07-17T12:30:46.744Z,48.3
2018-07-17T12:31:36.798Z,48.2
2018-07-17T12:32:26.582Z,48.1
2018-07-17T12:33:16.643Z,48.1
2018-07-17T12:34:06.762Z,48
2018-07-17T12:34:57.548Z,47.9
2018-07-17T12:35:47.617Z,47.9
2018-07-17T12:36:36.918Z,47.8
2018-07-17T12:37:26.945Z,47.8
2018-07-17T12:38:17.878Z,47.7
2018-07-17T12:39:07.665Z,47.6
2018-07-17T12:39:57.680Z,47.6
2018-07-17T12:40:46.610Z,47.5
2018-07-17T12:41:38.051Z,47.4
2018-07-17T12:42:27.299Z,47.3
2018-07-17T12:43:17.648Z,47.3
2018-07-17T12:44:07.726Z,47.2
2018-07-17T12:44:57.502Z,47.1
2018-07-17T12:45:48.111Z,47.1
2018-07-17T12:46:38.208Z,47
2018-07-17T12:47:28.250Z,46.9
2018-07-17T12:48:18.058Z,46.9
2018-07-17T12:49:07.682Z,46.8
2018-07-17T12:49:58.469Z,46.8
2018-07-17T12:50:48.789Z,46.7
2018-07-17T12:51:38.262Z,46.6
2018-07-17T12:52:28.630Z,46.6
2018-07-17T12:53:18.965Z,46.5
2018-07-17T12:54:08.491Z,46.4
2018-07-17T12:54:57.997Z,46.4
2018-07-17T12:55:49.181Z,46.4
2018-07-17T12:56:39.269Z,46.3
2018-07-17T12:57:29.376Z,46.3
2018-07-17T12:58:18.922Z,46.4
2018-07-17T12:59:08.848Z,46.4
2018-07-17T12:59:58.107Z,46.4
2018-07-17T13:00:49.322Z,46.3
2018-07-17T13:01:38.815Z,46.3
2018-07-17T13:02:29.142Z,46.3
2018-07-17T13:03:19.477Z,46.3
2018-07-17T13:04:09.277Z,46.3
2018-07-17T13:04:59.332Z,46.2
2018-07-17T13:05:49.368Z,46.1
2018-07-17T13:06:39.449Z,46.1
2018-07-17T13:07:30.120Z,46.1
2018-07-17T13:08:19.865Z,46
2018-07-17T13:09:09.724Z,45.9
2018-07-17T13:10:00.005Z,45.8
2018-07-17T13:10:50.084Z,45.8
2018-07-17T13:11:40.146Z,45.7
2018-07-17T13:12:30.206Z,45.6
2018-07-17T13:13:20.511Z,45.6
2018-07-17T13:14:10.671Z,45.6
2018-07-17T13:15:00.678Z,45.6
2018-07-17T13:15:50.726Z,45.5
2018-07-17T13:16:40.503Z,45.5
2018-07-17T13:17:31.039Z,45.5
2018-07-17T13:18:20.656Z,45.5
2018-07-17T13:19:10.967Z,45.4
2018-07-17T13:20:01.046Z,45.5
2018-07-17T13:20:51.083Z,45.5
2018-07-17T13:21:41.124Z,45.4
2018-07-17T13:22:30.942Z,45.5
2018-07-17T13:23:21.290Z,45.4
2018-07-17T13:24:10.524Z,45.4
2018-07-17T13:25:01.149Z,45.4
2018-07-17T13:25:51.195Z,45.4
2018-07-17T13:26:41.564Z,45.4
2018-07-17T13:27:31.605Z,45.4
2018-07-17T13:28:21.383Z,45.4
2018-07-17T13:29:11.721Z,45.5
2018-07-17T13:30:01.849Z,45.6
2018-07-17T13:30:51.591Z,45.6
2018-07-17T13:31:41.947Z,45.8
2018-07-17T13:32:31.995Z,45.9
2018-07-17T13:33:21.802Z,46.1
2018-07-17T13:34:12.142Z,46.1
2018-07-17T13:35:02.222Z,46
2018-07-17T13:35:51.961Z,45.9
2018-07-17T13:36:42.352Z,45.9
2018-07-17T13:37:32.390Z,45.9
2018-07-17T13:38:21.644Z,45.9
2018-07-17T13:39:13.108Z,45.9
2018-07-17T13:40:02.339Z,45.9
2018-07-17T13:40:52.695Z,45.8
2018-07-17T13:41:42.737Z,45.8
2018-07-17T13:42:32.490Z,45.8
2018-07-17T13:43:22.861Z,45.9
2018-07-17T13:44:12.368Z,45.9
2018-07-17T13:45:02.480Z,46
2018-07-17T13:45:53.092Z,45.9
2018-07-17T13:46:42.296Z,45.8
2018-07-17T13:47:33.171Z,45.8
2018-07-17T13:48:22.956Z,45.7
2018-07-17T13:49:13.291Z,45.7
2018-07-17T13:50:03.200Z,45.8
2018-07-17T13:50:53.273Z,45.8
2018-07-17T13:51:43.542Z,45.8
2018-07-17T13:52:33.053Z,45.6
2018-07-17T13:53:23.684Z,45.6
2018-07-17T13:54:13.429Z,45.6
2018-07-17T13:55:02.939Z,45.6
2018-07-17T13:55:53.283Z,45.5
2018-07-17T13:56:43.320Z,45.5
2018-07-17T13:57:33.415Z,45.5
2018-07-17T13:58:23.474Z,45.6
2018-07-17T13:59:14.139Z,45.6
2018-07-17T14:00:05.150Z,45.5
2018-07-17T14:00:53.945Z,45.5
2018-07-17T14:01:44.035Z,45.4
2018-07-17T14:02:34.640Z,45.4
2018-07-17T14:03:24.102Z,45.6
2018-07-17T14:04:14.509Z,45.8
2018-07-17T14:05:04.560Z,45.9
2018-07-17T14:05:54.612Z,45.9
2018-07-17T14:06:44.416Z,45.9
2018-07-17T14:07:34.474Z,45.9
2018-07-17T14:08:24.504Z,45.8
2018-07-17T14:09:14.527Z,45.8
2018-07-17T14:10:04.357Z,45.7
2018-07-17T14:10:54.713Z,45.6
2018-07-17T14:11:43.774Z,45.6
2018-07-17T14:12:34.292Z,45.5
2018-07-17T14:13:24.992Z,45.5
2018-07-17T14:14:15.268Z,45.5
2018-07-17T14:15:05.394Z,45.5
2018-07-17T14:15:55.377Z,45.4
2018-07-17T14:16:44.675Z,45.4
2018-07-17T14:17:35.778Z,45.4
2018-07-17T14:18:25.073Z,45.3
2018-07-17T14:19:15.367Z,45.4
2018-07-17T14:20:05.418Z,45.3
2018-07-17T14:20:55.301Z,45.3
2018-07-17T14:21:45.564Z,45.3
2018-07-17T14:22:35.621Z,45.2
2018-07-17T14:23:25.120Z,45.1
2018-07-17T14:24:16.005Z,45.1
2018-07-17T14:25:05.823Z,45
2018-07-17T14:25:56.265Z,45
2018-07-17T14:26:45.396Z,44.9
2018-07-17T14:27:36.292Z,44.9
2018-07-17T14:28:26.350Z,44.8
2018-07-17T14:29:16.409Z,44.8
2018-07-17T14:30:06.419Z,44.7
2018-07-17T14:30:55.736Z,44.6
2018-07-17T14:31:46.684Z,44.6
2018-07-17T14:32:36.696Z,44.6
2018-07-17T14:33:26.166Z,44.5
2018-07-17T14:34:16.776Z,44.4
2018-07-17T14:35:06.565Z,44.4
2018-07-17T14:35:57.695Z,44.3
2018-07-17T14:36:46.461Z,44.3
2018-07-17T14:37:37.064Z,44.2
2018-07-17T14:38:26.255Z,44.2
2018-07-17T14:39:17.165Z,44.1
2018-07-17T14:40:07.238Z,44.1
2018-07-17T14:40:57.017Z,44
2018-07-17T14:41:47.367Z,44
2018-07-17T14:42:37.206Z,44
2018-07-17T14:43:27.482Z,44
2018-07-17T14:44:17.281Z,43.9
2018-07-17T14:45:07.047Z,43.9
2018-07-17T14:45:57.745Z,43.9
2018-07-17T14:46:47.226Z,43.9
2018-07-17T14:47:37.311Z,43.9
2018-07-17T14:48:27.873Z,43.9
2018-07-17T14:49:17.542Z,43.9
2018-07-17T14:50:07.547Z,43.8
2018-07-17T14:50:57.309Z,43.8
2018-07-17T14:51:47.921Z,43.8
2018-07-17T14:52:37.393Z,43.8
2018-07-17T14:53:28.310Z,43.8
2018-07-17T14:54:18.134Z,43.8
2018-07-17T14:55:08.409Z,43.8
2018-07-17T14:55:57.900Z,43.8
2018-07-17T14:56:48.602Z,43.8
2018-07-17T14:57:38.332Z,43.8
2018-07-17T14:58:28.634Z,43.8
2018-07-17T14:59:18.460Z,43.8
2018-07-17T15:00:08.769Z,43.7
2018-07-17T15:00:58.292Z,43.7
2018-07-17T15:01:48.603Z,43.7
2018-07-17T15:02:38.494Z,43.6
2018-07-17T15:03:28.768Z,43.6
2018-07-17T15:04:19.168Z,43.6
2018-07-17T15:05:09.150Z,43.6
2018-07-17T15:05:59.244Z,43.4
2018-07-17T15:06:48.757Z,43.4
2018-07-17T15:07:38.308Z,43.4
2018-07-17T15:08:29.039Z,43.4
2018-07-17T15:09:18.940Z,43.4
2018-07-17T15:10:08.743Z,43.3
2018-07-17T15:10:59.085Z,43.3
2018-07-17T15:11:49.422Z,43.3
2018-07-17T15:12:39.815Z,43.3
2018-07-17T15:13:29.820Z,43.2
2018-07-17T15:14:19.602Z,43.1
2018-07-17T15:15:09.665Z,43.1
2018-07-17T15:16:00.779Z,43.1
2018-07-17T15:16:50.131Z,43.1
2018-07-17T15:17:40.130Z,43
2018-07-17T15:18:29.682Z,42.9
2018-07-17T15:19:19.756Z,42.9
2018-07-17T15:20:10.056Z,42.9
2018-07-17T15:21:00.422Z,42.8
2018-07-17T15:21:49.971Z,42.8
2018-07-17T15:22:40.545Z,42.8
2018-07-17T15:23:29.829Z,42.8
2018-07-17T15:24:19.868Z,42.8
2018-07-17T15:25:10.180Z,42.7
2018-07-17T15:26:00.519Z,42.7
2018-07-17T15:26:50.596Z,42.6
2018-07-17T15:27:40.835Z,42.6
2018-07-17T15:28:30.445Z,42.6
2018-07-17T15:29:21.097Z,42.5
2018-07-17T15:30:10.806Z,42.4
2018-07-17T15:31:00.940Z,42.4
2018-07-17T15:31:50.115Z,42.4
2018-07-17T15:32:41.277Z,42.3
2018-07-17T15:33:30.823Z,42.3
2018-07-17T15:34:20.869Z,42.3
2018-07-17T15:35:12.249Z,42.2
2018-07-17T15:36:01.621Z,42.1
2018-07-17T15:36:51.375Z,42.1
2018-07-17T15:37:40.598Z,42.1
2018-07-17T15:38:32.038Z,42.1
2018-07-17T15:39:21.263Z,42.1
2018-07-17T15:40:11.867Z,42
2018-07-17T15:41:02.033Z,42
2018-07-17T15:41:51.704Z,41.9
2018-07-17T15:42:41.542Z,41.9
2018-07-17T15:43:31.574Z,41.9
2018-07-17T15:44:22.211Z,41.9
2018-07-17T15:45:12.274Z,41.8
2018-07-17T15:46:02.102Z,41.8
2018-07-17T15:46:52.393Z,41.7
2018-07-17T15:47:42.472Z,41.7
2018-07-17T15:48:32.035Z,41.6
2018-07-17T15:49:22.379Z,41.6
2018-07-17T15:50:12.136Z,41.6
2018-07-17T15:51:02.721Z,41.5
2018-07-17T15:51:52.777Z,41.4
2018-07-17T15:52:42.285Z,41.4
2018-07-17T15:53:32.656Z,41.4
2018-07-17T15:54:23.022Z,41.3
2018-07-17T15:55:12.486Z,41.3
2018-07-17T15:56:02.286Z,41.1
2018-07-17T15:56:52.600Z,40.9
2018-07-17T15:57:43.302Z,40.6
2018-07-17T15:58:32.993Z,40.4
2018-07-17T15:59:23.103Z,40.1
2018-07-17T16:00:13.456Z,39.9
2018-07-17T16:01:03.537Z,39.6
2018-07-17T16:01:53.278Z,39.4
2018-07-17T16:02:43.584Z,39.3
2018-07-17T16:03:33.369Z,39.1
2018-07-17T16:04:23.191Z,38.9
2018-07-17T16:05:13.543Z,38.7
2018-07-17T16:06:03.869Z,38.5
2018-07-17T16:06:53.917Z,38.4
2018-07-17T16:07:43.998Z,38.2
2018-07-17T16:08:34.135Z,38.1
2018-07-17T16:09:24.116Z,37.9
2018-07-17T16:10:14.430Z,37.8
2018-07-17T16:11:04.232Z,37.7
2018-07-17T16:11:54.351Z,37.6
2018-07-17T16:12:44.362Z,37.5
2018-07-17T16:13:36.387Z,37.4
2018-07-17T16:14:31.556Z,37.3
2018-07-17T16:15:14.549Z,37.2
2018-07-17T16:16:04.354Z,37.1
2018-07-17T16:16:54.713Z,37
2018-07-17T16:17:44.493Z,36.9
2018-07-17T16:18:34.285Z,36.9
2018-07-17T16:19:24.627Z,36.8
2018-07-17T16:20:15.126Z,36.7
2018-07-17T16:21:05.121Z,36.6
2018-07-17T16:21:54.592Z,36.6
2018-07-17T16:22:44.896Z,36.5
2018-07-17T16:23:35.223Z,36.4
2018-07-17T16:24:25.418Z,36.4
2018-07-17T16:25:15.087Z,36.3
2018-07-17T16:26:05.147Z,36.3
2018-07-17T16:26:55.206Z,36.2
2018-07-17T16:27:45.271Z,36.1
2018-07-17T16:28:34.779Z,36.1
2018-07-17T16:29:24.405Z,36.1
2018-07-17T16:30:15.448Z,36
2018-07-17T16:31:05.574Z,35.9
2018-07-17T16:31:55.623Z,35.9
2018-07-17T16:32:44.836Z,35.8
2018-07-17T16:33:35.733Z,35.8
2018-07-17T16:34:25.778Z,35.8
2018-07-17T16:35:15.928Z,35.7
2018-07-17T16:36:06.195Z,35.6
2018-07-17T16:36:56.171Z,35.6
2018-07-17T16:37:46.039Z,35.6
2018-07-17T16:38:36.100Z,35.6
2018-07-17T16:39:26.481Z,35.5
2018-07-17T16:40:16.524Z,35.4
2018-07-17T16:41:06.594Z,35.4
2018-07-17T16:41:56.597Z,35.4
2018-07-17T16:42:46.745Z,35.4
2018-07-17T16:43:36.490Z,35.3
2018-07-17T16:44:26.813Z,35.3
2018-07-17T16:45:16.878Z,35.3
2018-07-17T16:46:06.955Z,35.3
2018-07-17T16:46:56.720Z,35.2
2018-07-17T16:47:46.303Z,35.1
2018-07-17T16:48:36.857Z,35.1
2018-07-17T16:49:26.183Z,35.1
2018-07-17T16:50:17.280Z,35.1
2018-07-17T16:51:07.338Z,35
2018-07-17T16:51:56.343Z,35
2018-07-17T16:52:47.474Z,34.9
2018-07-17T16:53:36.962Z,34.9
2018-07-17T16:54:27.613Z,34.9
2018-07-17T16:55:17.173Z,34.9
2018-07-17T16:56:07.456Z,34.8
2018-07-17T16:56:57.549Z,34.8
2018-07-17T16:57:47.031Z,34.8
2018-07-17T16:58:37.419Z,34.8
2018-07-17T16:59:27.432Z,34.8
2018-07-17T17:00:18.036Z,34.7
2018-07-17T17:01:07.913Z,34.7
2018-07-17T17:01:58.180Z,34.7
2018-07-17T17:02:48.320Z,34.7
2018-07-17T17:03:38.286Z,34.6
2018-07-17T17:04:28.357Z,34.6
2018-07-17T17:05:17.660Z,34.6
2018-07-17T17:06:08.245Z,34.6
2018-07-17T17:06:58.530Z,34.5
2018-07-17T17:07:48.311Z,34.5
2018-07-17T17:08:38.661Z,34.5
2018-07-17T17:09:28.178Z,34.5
2018-07-17T17:10:18.527Z,34.4
2018-07-17T17:11:08.697Z,34.4
2018-07-17T17:11:58.104Z,34.4
2018-07-17T17:12:48.972Z,34.4